sensor_id;sensor_type;location;lat;lon;timestamp;P1;durP1;ratioP1;P2;durP2;ratioP2
45232;SDS011;30969;51.052;17.056;2022-09-01T00:00:19;5.28;;;2.97;;
45232;SDS011;30969;51.052;17.056;2022-09-01T00:05:38;6.63;;;2.47;;
45232;SDS011;30969;51.052;17.056;2022-09-01T00:10:41;4.95;;;2.80;;
45232;SDS011;30969;51.052;17.056;2022-09-01T00:15:45;5.80;;;2.80;;
45232;SDS011;30969;51.052;17.056;2022-09-01T00:20:50;4.78;;;2.83;;
45232;SDS011;30969;51.052;17.056;2022-09-01T00:25:56;5.55;;;2.45;;
45232;SDS011;30969;51.052;17.056;2022-09-01T00:31:00;9.43;;;3.05;;
45232;SDS011;30969;51.052;17.056;2022-09-01T00:36:06;5.95;;;3.10;;
45232;SDS011;30969;51.052;17.056;2022-09-01T00:41:10;6.38;;;2.72;;
45232;SDS011;30969;51.052;17.056;2022-09-01T00:46:16;5.50;;;2.85;;
45232;SDS011;30969;51.052;17.056;2022-09-01T00:51:25;4.43;;;2.60;;
45232;SDS011;30969;51.052;17.056;2022-09-01T00:56:30;8.75;;;2.83;;
45232;SDS011;30969;51.052;17.056;2022-09-01T01:01:57;5.38;;;2.42;;
45232;SDS011;30969;51.052;17.056;2022-09-01T01:07:02;6.38;;;2.55;;
45232;SDS011;30969;51.052;17.056;2022-09-01T01:12:07;5.57;;;3.03;;
45232;SDS011;30969;51.052;17.056;2022-09-01T01:17:12;7.35;;;2.60;;
45232;SDS011;30969;51.052;17.056;2022-09-01T01:22:17;4.18;;;2.65;;
45232;SDS011;30969;51.052;17.056;2022-09-01T01:27:47;5.05;;;2.58;;
45232;SDS011;30969;51.052;17.056;2022-09-01T01:32:51;6.90;;;2.50;;
45232;SDS011;30969;51.052;17.056;2022-09-01T01:37:59;7.15;;;2.97;;
45232;SDS011;30969;51.052;17.056;2022-09-01T01:43:09;4.90;;;2.78;;
45232;SDS011;30969;51.052;17.056;2022-09-01T01:48:22;5.13;;;2.45;;
45232;SDS011;30969;51.052;17.056;2022-09-01T01:53:26;5.45;;;2.40;;
45232;SDS011;30969;51.052;17.056;2022-09-01T01:58:32;4.43;;;2.50;;
45232;SDS011;30969;51.052;17.056;2022-09-01T02:03:36;5.28;;;2.65;;
45232;SDS011;30969;51.052;17.056;2022-09-01T02:08:42;5.40;;;2.72;;
45232;SDS011;30969;51.052;17.056;2022-09-01T02:13:46;5.18;;;2.47;;
45232;SDS011;30969;51.052;17.056;2022-09-01T02:18:50;5.47;;;2.20;;
45232;SDS011;30969;51.052;17.056;2022-09-01T02:23:55;4.85;;;2.22;;
45232;SDS011;30969;51.052;17.056;2022-09-01T02:29:05;6.13;;;2.63;;
45232;SDS011;30969;51.052;17.056;2022-09-01T02:34:11;8.02;;;2.55;;
45232;SDS011;30969;51.052;17.056;2022-09-01T02:39:16;6.18;;;2.65;;
45232;SDS011;30969;51.052;17.056;2022-09-01T02:44:22;4.60;;;2.42;;
45232;SDS011;30969;51.052;17.056;2022-09-01T02:49:28;5.00;;;2.22;;
45232;SDS011;30969;51.052;17.056;2022-09-01T02:54:32;5.75;;;2.53;;
45232;SDS011;30969;51.052;17.056;2022-09-01T02:59:37;7.47;;;2.45;;
45232;SDS011;30969;51.052;17.056;2022-09-01T03:04:44;4.50;;;2.30;;
45232;SDS011;30969;51.052;17.056;2022-09-01T03:09:50;8.05;;;2.67;;
45232;SDS011;30969;51.052;17.056;2022-09-01T03:14:55;5.45;;;2.63;;
45232;SDS011;30969;51.052;17.056;2022-09-01T03:19:58;7.80;;;2.90;;
45232;SDS011;30969;51.052;17.056;2022-09-01T03:25:02;3.92;;;2.30;;
45232;SDS011;30969;51.052;17.056;2022-09-01T03:30:07;5.18;;;2.60;;
45232;SDS011;30969;51.052;17.056;2022-09-01T03:35:12;3.85;;;2.53;;
45232;SDS011;30969;51.052;17.056;2022-09-01T03:40:24;4.77;;;2.50;;
45232;SDS011;30969;51.052;17.056;2022-09-01T03:45:30;5.15;;;2.38;;
45232;SDS011;30969;51.052;17.056;2022-09-01T03:50:37;4.97;;;2.65;;
45232;SDS011;30969;51.052;17.056;2022-09-01T03:55:46;9.05;;;2.40;;
45232;SDS011;30969;51.052;17.056;2022-09-01T04:00:53;3.95;;;2.45;;
45232;SDS011;30969;51.052;17.056;2022-09-01T04:06:01;6.65;;;2.78;;
45232;SDS011;30969;51.052;17.056;2022-09-01T04:11:10;4.97;;;2.75;;
45232;SDS011;30969;51.052;17.056;2022-09-01T04:16:19;5.13;;;2.60;;
45232;SDS011;30969;51.052;17.056;2022-09-01T04:21:42;5.32;;;2.47;;
45232;SDS011;30969;51.052;17.056;2022-09-01T04:26:46;7.50;;;2.53;;
45232;SDS011;30969;51.052;17.056;2022-09-01T04:31:52;7.32;;;2.80;;
45232;SDS011;30969;51.052;17.056;2022-09-01T04:36:56;4.93;;;2.70;;
45232;SDS011;30969;51.052;17.056;2022-09-01T04:41:59;6.72;;;2.83;;
45232;SDS011;30969;51.052;17.056;2022-09-01T04:47:08;6.57;;;2.55;;
45232;SDS011;30969;51.052;17.056;2022-09-01T04:52:17;8.07;;;3.10;;
45232;SDS011;30969;51.052;17.056;2022-09-01T04:57:21;6.32;;;2.83;;
45232;SDS011;30969;51.052;17.056;2022-09-01T05:02:26;11.82;;;4.00;;
45232;SDS011;30969;51.052;17.056;2022-09-01T05:07:30;9.63;;;3.30;;
45232;SDS011;30969;51.052;17.056;2022-09-01T05:12:35;9.32;;;3.28;;
45232;SDS011;30969;51.052;17.056;2022-09-01T05:17:40;6.95;;;2.72;;
45232;SDS011;30969;51.052;17.056;2022-09-01T05:22:43;7.28;;;3.20;;
45232;SDS011;30969;51.052;17.056;2022-09-01T05:27:47;6.15;;;2.85;;
45232;SDS011;30969;51.052;17.056;2022-09-01T05:32:53;6.55;;;2.65;;
45232;SDS011;30969;51.052;17.056;2022-09-01T05:37:56;4.65;;;2.65;;
45232;SDS011;30969;51.052;17.056;2022-09-01T05:43:00;11.88;;;2.90;;
45232;SDS011;30969;51.052;17.056;2022-09-01T05:48:05;6.80;;;2.75;;
45232;SDS011;30969;51.052;17.056;2022-09-01T05:53:10;7.00;;;2.47;;
45232;SDS011;30969;51.052;17.056;2022-09-01T05:58:20;9.93;;;2.80;;
45232;SDS011;30969;51.052;17.056;2022-09-01T06:03:27;5.03;;;2.33;;
45232;SDS011;30969;51.052;17.056;2022-09-01T06:08:39;5.78;;;1.98;;
45232;SDS011;30969;51.052;17.056;2022-09-01T06:13:47;6.43;;;2.45;;
45232;SDS011;30969;51.052;17.056;2022-09-01T06:18:57;7.43;;;2.58;;
45232;SDS011;30969;51.052;17.056;2022-09-01T06:24:01;3.97;;;2.33;;
45232;SDS011;30969;51.052;17.056;2022-09-01T06:29:08;5.55;;;2.70;;
45232;SDS011;30969;51.052;17.056;2022-09-01T06:34:17;4.05;;;2.03;;
45232;SDS011;30969;51.052;17.056;2022-09-01T06:39:21;5.55;;;2.42;;
45232;SDS011;30969;51.052;17.056;2022-09-01T06:44:27;5.70;;;2.40;;
45232;SDS011;30969;51.052;17.056;2022-09-01T06:49:34;3.65;;;2.00;;
45232;SDS011;30969;51.052;17.056;2022-09-01T06:54:41;3.55;;;2.10;;
45232;SDS011;30969;51.052;17.056;2022-09-01T06:59:45;7.60;;;2.22;;
45232;SDS011;30969;51.052;17.056;2022-09-01T07:04:54;3.63;;;2.47;;
45232;SDS011;30969;51.052;17.056;2022-09-01T07:09:58;8.27;;;3.10;;
45232;SDS011;30969;51.052;17.056;2022-09-01T07:15:22;7.30;;;2.30;;
45232;SDS011;30969;51.052;17.056;2022-09-01T07:20:47;6.78;;;1.95;;
45232;SDS011;30969;51.052;17.056;2022-09-01T07:26:12;5.10;;;2.30;;
45232;SDS011;30969;51.052;17.056;2022-09-01T07:31:27;8.20;;;2.30;;
45232;SDS011;30969;51.052;17.056;2022-09-01T07:36:54;6.05;;;2.92;;
45232;SDS011;30969;51.052;17.056;2022-09-01T07:42:20;6.78;;;2.20;;
45232;SDS011;30969;51.052;17.056;2022-09-01T07:47:43;6.22;;;2.20;;
45232;SDS011;30969;51.052;17.056;2022-09-01T07:52:56;6.63;;;1.92;;
45232;SDS011;30969;51.052;17.056;2022-09-01T07:58:01;4.03;;;2.10;;
45232;SDS011;30969;51.052;17.056;2022-09-01T08:03:04;3.60;;;1.70;;
45232;SDS011;30969;51.052;17.056;2022-09-01T08:08:09;6.30;;;1.35;;
45232;SDS011;30969;51.052;17.056;2022-09-01T08:13:25;3.10;;;1.35;;
45232;SDS011;30969;51.052;17.056;2022-09-01T08:18:31;4.10;;;1.40;;
45232;SDS011;30969;51.052;17.056;2022-09-01T08:23:51;3.78;;;1.42;;
45232;SDS011;30969;51.052;17.056;2022-09-01T08:28:56;4.55;;;1.40;;
45232;SDS011;30969;51.052;17.056;2022-09-01T08:34:00;2.80;;;1.02;;
45232;SDS011;30969;51.052;17.056;2022-09-01T08:39:07;2.08;;;0.90;;
45232;SDS011;30969;51.052;17.056;2022-09-01T08:44:13;3.28;;;1.20;;
45232;SDS011;30969;51.052;17.056;2022-09-01T08:49:23;3.23;;;1.30;;
45232;SDS011;30969;51.052;17.056;2022-09-01T08:54:33;1.98;;;0.90;;
45232;SDS011;30969;51.052;17.056;2022-09-01T08:59:42;2.33;;;1.20;;
45232;SDS011;30969;51.052;17.056;2022-09-01T09:04:48;2.20;;;1.17;;
45232;SDS011;30969;51.052;17.056;2022-09-01T09:10:02;5.07;;;1.05;;
45232;SDS011;30969;51.052;17.056;2022-09-01T09:15:14;2.80;;;1.40;;
45232;SDS011;30969;51.052;17.056;2022-09-01T09:30:32;9.32;;;1.40;;
45232;SDS011;30969;51.052;17.056;2022-09-01T09:35:36;3.45;;;1.23;;
45232;SDS011;30969;51.052;17.056;2022-09-01T09:40:51;5.05;;;1.17;;
45232;SDS011;30969;51.052;17.056;2022-09-01T09:46:24;6.22;;;1.02;;
45232;SDS011;30969;51.052;17.056;2022-09-01T09:51:35;2.45;;;1.20;;
45232;SDS011;30969;51.052;17.056;2022-09-01T09:56:41;2.28;;;0.80;;
45232;SDS011;30969;51.052;17.056;2022-09-01T10:01:46;11.05;;;1.90;;
45232;SDS011;30969;51.052;17.056;2022-09-01T10:06:53;3.08;;;1.02;;
45232;SDS011;30969;51.052;17.056;2022-09-01T10:11:58;4.43;;;1.20;;
45232;SDS011;30969;51.052;17.056;2022-09-01T10:17:05;2.70;;;1.17;;
45232;SDS011;30969;51.052;17.056;2022-09-01T10:22:16;5.25;;;1.27;;
45232;SDS011;30969;51.052;17.056;2022-09-01T10:27:22;1.45;;;0.82;;
45232;SDS011;30969;51.052;17.056;2022-09-01T10:32:33;5.27;;;1.10;;
45232;SDS011;30969;51.052;17.056;2022-09-01T10:37:53;2.58;;;1.45;;
45232;SDS011;30969;51.052;17.056;2022-09-01T10:48:38;1.70;;;0.82;;
45232;SDS011;30969;51.052;17.056;2022-09-01T10:53:57;4.28;;;0.80;;
45232;SDS011;30969;51.052;17.056;2022-09-01T10:59:06;5.65;;;1.40;;
45232;SDS011;30969;51.052;17.056;2022-09-01T11:10:32;1.15;;;0.73;;
45232;SDS011;30969;51.052;17.056;2022-09-01T11:15:42;1.13;;;0.80;;
45232;SDS011;30969;51.052;17.056;2022-09-01T11:20:46;3.33;;;0.80;;
45232;SDS011;30969;51.052;17.056;2022-09-01T11:25:51;2.00;;;0.60;;
45232;SDS011;30969;51.052;17.056;2022-09-01T11:31:22;1.65;;;0.90;;
45232;SDS011;30969;51.052;17.056;2022-09-01T11:36:44;4.57;;;0.70;;
45232;SDS011;30969;51.052;17.056;2022-09-01T11:42:02;3.75;;;1.13;;
45232;SDS011;30969;51.052;17.056;2022-09-01T11:47:14;0.85;;;0.40;;
45232;SDS011;30969;51.052;17.056;2022-09-01T11:52:21;1.17;;;0.77;;
45232;SDS011;30969;51.052;17.056;2022-09-01T11:57:28;1.65;;;0.75;;
45232;SDS011;30969;51.052;17.056;2022-09-01T12:02:35;1.00;;;0.60;;
45232;SDS011;30969;51.052;17.056;2022-09-01T12:07:46;1.60;;;0.50;;
45232;SDS011;30969;51.052;17.056;2022-09-01T12:12:49;1.67;;;0.57;;
45232;SDS011;30969;51.052;17.056;2022-09-01T12:23:16;5.23;;;0.63;;
45232;SDS011;30969;51.052;17.056;2022-09-01T12:28:25;1.17;;;0.57;;
45232;SDS011;30969;51.052;17.056;2022-09-01T12:33:34;1.75;;;0.60;;
45232;SDS011;30969;51.052;17.056;2022-09-01T12:38:39;2.45;;;0.52;;
45232;SDS011;30969;51.052;17.056;2022-09-01T12:43:42;3.00;;;0.38;;
45232;SDS011;30969;51.052;17.056;2022-09-01T12:48:47;1.95;;;0.60;;
45232;SDS011;30969;51.052;17.056;2022-09-01T12:53:51;3.15;;;0.40;;
45232;SDS011;30969;51.052;17.056;2022-09-01T12:59:03;2.13;;;0.70;;
45232;SDS011;30969;51.052;17.056;2022-09-01T13:04:25;0.98;;;0.55;;
45232;SDS011;30969;51.052;17.056;2022-09-01T13:09:31;1.70;;;1.10;;
45232;SDS011;30969;51.052;17.056;2022-09-01T13:14:35;3.83;;;0.88;;
45232;SDS011;30969;51.052;17.056;2022-09-01T13:19:40;4.97;;;0.75;;
45232;SDS011;30969;51.052;17.056;2022-09-01T13:24:44;1.10;;;0.73;;
45232;SDS011;30969;51.052;17.056;2022-09-01T13:29:48;2.28;;;0.65;;
45232;SDS011;30969;51.052;17.056;2022-09-01T13:34:54;2.28;;;0.50;;
45232;SDS011;30969;51.052;17.056;2022-09-01T13:39:57;2.80;;;0.60;;
45232;SDS011;30969;51.052;17.056;2022-09-01T13:45:02;2.30;;;0.63;;
45232;SDS011;30969;51.052;17.056;2022-09-01T13:50:09;0.52;;;0.45;;
45232;SDS011;30969;51.052;17.056;2022-09-01T13:55:19;3.13;;;0.67;;
45232;SDS011;30969;51.052;17.056;2022-09-01T14:00:25;3.50;;;0.45;;
45232;SDS011;30969;51.052;17.056;2022-09-01T14:05:33;1.85;;;0.38;;
45232;SDS011;30969;51.052;17.056;2022-09-01T14:10:38;0.63;;;0.50;;
45232;SDS011;30969;51.052;17.056;2022-09-01T14:15:42;0.70;;;0.30;;
45232;SDS011;30969;51.052;17.056;2022-09-01T14:20:50;1.35;;;0.40;;
45232;SDS011;30969;51.052;17.056;2022-09-01T14:25:55;1.13;;;0.60;;
45232;SDS011;30969;51.052;17.056;2022-09-01T14:30:59;1.30;;;0.57;;
45232;SDS011;30969;51.052;17.056;2022-09-01T14:36:04;1.65;;;0.60;;
45232;SDS011;30969;51.052;17.056;2022-09-01T14:41:14;1.60;;;0.50;;
45232;SDS011;30969;51.052;17.056;2022-09-01T14:46:21;2.08;;;0.80;;
45232;SDS011;30969;51.052;17.056;2022-09-01T14:51:28;1.33;;;0.50;;
45232;SDS011;30969;51.052;17.056;2022-09-01T14:56:54;1.60;;;0.30;;
45232;SDS011;30969;51.052;17.056;2022-09-01T15:02:18;1.95;;;0.77;;
45232;SDS011;30969;51.052;17.056;2022-09-01T15:07:23;1.65;;;0.45;;
45232;SDS011;30969;51.052;17.056;2022-09-01T15:12:27;2.97;;;0.50;;
45232;SDS011;30969;51.052;17.056;2022-09-01T15:17:31;4.75;;;0.88;;
45232;SDS011;30969;51.052;17.056;2022-09-01T15:22:37;2.25;;;0.60;;
45232;SDS011;30969;51.052;17.056;2022-09-01T15:27:40;0.63;;;0.38;;
45232;SDS011;30969;51.052;17.056;2022-09-01T15:32:45;1.85;;;0.52;;
45232;SDS011;30969;51.052;17.056;2022-09-01T15:37:51;2.45;;;0.60;;
45232;SDS011;30969;51.052;17.056;2022-09-01T15:42:56;1.63;;;0.40;;
45232;SDS011;30969;51.052;17.056;2022-09-01T15:48:00;1.27;;;0.47;;
45232;SDS011;30969;51.052;17.056;2022-09-01T15:53:06;1.98;;;0.60;;
45232;SDS011;30969;51.052;17.056;2022-09-01T15:58:14;3.25;;;0.50;;
45232;SDS011;30969;51.052;17.056;2022-09-01T16:03:19;1.13;;;0.60;;
45232;SDS011;30969;51.052;17.056;2022-09-01T16:08:26;4.32;;;0.70;;
45232;SDS011;30969;51.052;17.056;2022-09-01T16:13:29;3.97;;;0.90;;
45232;SDS011;30969;51.052;17.056;2022-09-01T16:18:35;1.23;;;0.50;;
45232;SDS011;30969;51.052;17.056;2022-09-01T16:23:44;2.72;;;0.60;;
45232;SDS011;30969;51.052;17.056;2022-09-01T16:28:52;0.85;;;0.60;;
45232;SDS011;30969;51.052;17.056;2022-09-01T16:34:00;3.10;;;0.50;;
45232;SDS011;30969;51.052;17.056;2022-09-01T16:39:14;0.63;;;0.38;;
45232;SDS011;30969;51.052;17.056;2022-09-01T16:44:25;1.67;;;0.50;;
45232;SDS011;30969;51.052;17.056;2022-09-01T16:49:42;2.35;;;0.50;;
45232;SDS011;30969;51.052;17.056;2022-09-01T16:54:57;1.55;;;0.57;;
45232;SDS011;30969;51.052;17.056;2022-09-01T17:00:14;2.22;;;0.30;;
45232;SDS011;30969;51.052;17.056;2022-09-01T17:05:30;0.73;;;0.30;;
45232;SDS011;30969;51.052;17.056;2022-09-01T17:10:39;3.63;;;0.63;;
45232;SDS011;30969;51.052;17.056;2022-09-01T17:15:46;0.38;;;0.32;;
45232;SDS011;30969;51.052;17.056;2022-09-01T17:20:54;3.63;;;0.43;;
45232;SDS011;30969;51.052;17.056;2022-09-01T17:26:06;1.85;;;0.57;;
45232;SDS011;30969;51.052;17.056;2022-09-01T17:36:27;1.75;;;0.60;;
45232;SDS011;30969;51.052;17.056;2022-09-01T17:41:39;1.00;;;0.50;;
45232;SDS011;30969;51.052;17.056;2022-09-01T17:46:49;2.38;;;0.50;;
45232;SDS011;30969;51.052;17.056;2022-09-01T17:52:00;1.60;;;0.70;;
45232;SDS011;30969;51.052;17.056;2022-09-01T17:57:13;2.55;;;0.80;;
45232;SDS011;30969;51.052;17.056;2022-09-01T18:02:35;1.38;;;0.70;;
45232;SDS011;30969;51.052;17.056;2022-09-01T18:08:07;1.83;;;0.95;;
45232;SDS011;30969;51.052;17.056;2022-09-01T18:13:21;2.50;;;1.20;;
45232;SDS011;30969;51.052;17.056;2022-09-01T18:18:49;7.90;;;1.58;;
45232;SDS011;30969;51.052;17.056;2022-09-01T18:23:56;2.00;;;1.25;;
45232;SDS011;30969;51.052;17.056;2022-09-01T18:29:09;3.97;;;2.40;;
45232;SDS011;30969;51.052;17.056;2022-09-01T18:34:14;4.57;;;1.85;;
45232;SDS011;30969;51.052;17.056;2022-09-01T18:39:26;3.57;;;1.40;;
45232;SDS011;30969;51.052;17.056;2022-09-01T18:44:40;3.97;;;1.50;;
45232;SDS011;30969;51.052;17.056;2022-09-01T18:49:54;3.20;;;1.67;;
45232;SDS011;30969;51.052;17.056;2022-09-01T18:55:11;10.68;;;3.35;;
45232;SDS011;30969;51.052;17.056;2022-09-01T19:00:24;5.07;;;2.90;;
45232;SDS011;30969;51.052;17.056;2022-09-01T19:05:37;5.50;;;2.40;;
45232;SDS011;30969;51.052;17.056;2022-09-01T19:10:58;2.95;;;1.50;;
45232;SDS011;30969;51.052;17.056;2022-09-01T19:16:11;2.47;;;1.33;;
45232;SDS011;30969;51.052;17.056;2022-09-01T19:21:24;1.95;;;1.13;;
45232;SDS011;30969;51.052;17.056;2022-09-01T19:26:37;5.80;;;1.80;;
45232;SDS011;30969;51.052;17.056;2022-09-01T19:31:46;5.53;;;2.00;;
45232;SDS011;30969;51.052;17.056;2022-09-01T19:36:51;3.50;;;1.73;;
45232;SDS011;30969;51.052;17.056;2022-09-01T19:41:56;3.75;;;1.63;;
45232;SDS011;30969;51.052;17.056;2022-09-01T19:47:07;4.72;;;1.40;;
45232;SDS011;30969;51.052;17.056;2022-09-01T19:52:17;4.40;;;1.73;;
45232;SDS011;30969;51.052;17.056;2022-09-01T19:57:29;4.53;;;1.33;;
45232;SDS011;30969;51.052;17.056;2022-09-01T20:02:40;2.90;;;1.23;;
45232;SDS011;30969;51.052;17.056;2022-09-01T20:07:50;2.67;;;1.60;;
45232;SDS011;30969;51.052;17.056;2022-09-01T20:13:09;4.13;;;2.10;;
45232;SDS011;30969;51.052;17.056;2022-09-01T20:18:26;5.68;;;1.55;;
45232;SDS011;30969;51.052;17.056;2022-09-01T20:23:34;3.58;;;1.92;;
45232;SDS011;30969;51.052;17.056;2022-09-01T20:28:45;7.05;;;1.80;;
45232;SDS011;30969;51.052;17.056;2022-09-01T20:33:54;6.93;;;2.40;;
45232;SDS011;30969;51.052;17.056;2022-09-01T20:39:04;4.03;;;2.10;;
45232;SDS011;30969;51.052;17.056;2022-09-01T20:44:32;5.93;;;2.67;;
45232;SDS011;30969;51.052;17.056;2022-09-01T20:49:40;3.17;;;2.03;;
45232;SDS011;30969;51.052;17.056;2022-09-01T20:54:47;4.18;;;2.40;;
45232;SDS011;30969;51.052;17.056;2022-09-01T20:59:53;3.20;;;2.10;;
45232;SDS011;30969;51.052;17.056;2022-09-01T21:05:03;10.05;;;2.58;;
45232;SDS011;30969;51.052;17.056;2022-09-01T21:15:41;6.47;;;2.22;;
45232;SDS011;30969;51.052;17.056;2022-09-01T21:20:53;9.57;;;2.60;;
45232;SDS011;30969;51.052;17.056;2022-09-01T21:26:01;9.65;;;2.88;;
45232;SDS011;30969;51.052;17.056;2022-09-01T21:31:06;6.43;;;2.85;;
45232;SDS011;30969;51.052;17.056;2022-09-01T21:36:12;8.75;;;3.95;;
45232;SDS011;30969;51.052;17.056;2022-09-01T21:41:16;10.52;;;5.57;;
45232;SDS011;30969;51.052;17.056;2022-09-01T21:46:19;6.93;;;2.97;;
45232;SDS011;30969;51.052;17.056;2022-09-01T21:51:24;6.88;;;3.40;;
45232;SDS011;30969;51.052;17.056;2022-09-01T21:56:28;5.95;;;3.13;;
45232;SDS011;30969;51.052;17.056;2022-09-01T22:01:33;6.22;;;2.20;;
45232;SDS011;30969;51.052;17.056;2022-09-01T22:06:38;6.97;;;3.05;;
45232;SDS011;30969;51.052;17.056;2022-09-01T22:11:42;4.72;;;2.30;;
45232;SDS011;30969;51.052;17.056;2022-09-01T22:16:46;8.15;;;2.40;;
45232;SDS011;30969;51.052;17.056;2022-09-01T22:21:52;5.85;;;2.40;;
45232;SDS011;30969;51.052;17.056;2022-09-01T22:26:56;8.00;;;2.42;;
45232;SDS011;30969;51.052;17.056;2022-09-01T22:31:59;7.65;;;2.00;;
45232;SDS011;30969;51.052;17.056;2022-09-01T22:37:04;3.70;;;2.30;;
45232;SDS011;30969;51.052;17.056;2022-09-01T22:42:09;4.75;;;2.17;;
45232;SDS011;30969;51.052;17.056;2022-09-01T22:47:12;4.57;;;2.03;;
45232;SDS011;30969;51.052;17.056;2022-09-01T22:52:17;4.68;;;2.17;;
45232;SDS011;30969;51.052;17.056;2022-09-01T22:57:21;4.68;;;1.75;;
45232;SDS011;30969;51.052;17.056;2022-09-01T23:02:24;3.17;;;1.95;;
45232;SDS011;30969;51.052;17.056;2022-09-01T23:07:30;3.38;;;1.90;;
45232;SDS011;30969;51.052;17.056;2022-09-01T23:12:34;2.40;;;1.55;;
45232;SDS011;30969;51.052;17.056;2022-09-01T23:17:37;3.42;;;2.03;;
45232;SDS011;30969;51.052;17.056;2022-09-01T23:22:43;3.92;;;1.88;;
45232;SDS011;30969;51.052;17.056;2022-09-01T23:27:47;3.88;;;2.33;;
45232;SDS011;30969;51.052;17.056;2022-09-01T23:32:50;6.15;;;3.22;;
45232;SDS011;30969;51.052;17.056;2022-09-01T23:37:55;4.47;;;2.15;;
45232;SDS011;30969;51.052;17.056;2022-09-01T23:42:59;4.40;;;1.80;;
45232;SDS011;30969;51.052;17.056;2022-09-01T23:48:02;3.83;;;1.73;;
45232;SDS011;30969;51.052;17.056;2022-09-01T23:53:07;5.88;;;2.03;;
45232;SDS011;30969;51.052;17.056;2022-09-01T23:58:11;6.72;;;2.40;;
